New Prague, Minnesota
Current Conditions -  °F | °C
As of 6:48 AM on Thursday 30 Oct 2014 (Local Time) from KLVN Reporting Station
Overcast Overcast  
Wind Chill: 36°   Ceiling: 6000
Heat Index: 36°   Visibility: 10mi
Dew Point: 34°   Wind: 0mph
Humidity: 93%   Direction: NA
Pressure: 30.03"   Gusts: NA
Location:  44.54°N, 93.58°W
Report Text: KLVN 301148Z AUTO 00000KT 10SM OVC060 02/01 A3003 RMK AO2
Loading
Personal Weather Stations






























Interactive Weather Map
Tropical Storm Tracking
New forecast layout! Learn more

10-Day Weather Forecast

Advertisements
Track Severe Weather on mobile